Time;durP1;ratioP1;P1;durP2;ratioP2;P2;SDS_P1;SDS_P2;PMS_P1;PMS_P2;Temp;Humidity;BMP_temperature;BMP_pressure;BME280_temperature;BME280_humidity;BME280_pressure;Samples;Min_cycle;Max_cycle;Signal;HPM_P1;HPM_P2
2023/02/15 00:01:34;;;;;;;26.83;12.27;;;3.70;99.90;;;;;;4987587;28;20031;-71
2023/02/15 00:04:00;;;;;;;23.92;11.52;;;3.70;99.90;;;;;;4990208;28;20050;-71
2023/02/15 00:06:26;;;;;;;28.42;13.25;;;3.60;99.90;;;;;;4989796;28;20050;-71
2023/02/15 00:08:52;;;;;;;27.00;11.02;;;3.60;99.90;;;;;;4989794;28;20376;-72
2023/02/15 00:14:14;;;;;;;24.48;10.85;;;3.60;99.90;;;;;;4988167;28;20049;-71
2023/02/15 00:16:41;;;;;;;27.25;11.65;;;3.50;99.90;;;;;;4988629;28;20097;-72
2023/02/15 00:19:08;;;;;;;32.55;12.07;;;3.50;99.90;;;;;;4988621;28;20026;-71
2023/02/15 00:21:35;;;;;;;26.48;12.00;;;3.50;99.90;;;;;;4972233;28;20085;-71
2023/02/15 00:24:03;;;;;;;28.02;11.52;;;3.50;99.90;;;;;;4972160;28;20058;-71
2023/02/15 00:26:29;;;;;;;23.73;10.60;;;3.50;99.90;;;;;;4970805;28;20435;-70
2023/02/15 00:28:56;;;;;;;28.50;11.40;;;3.40;99.90;;;;;;4988937;28;20062;-71
2023/02/15 00:31:21;;;;;;;24.00;11.00;;;3.40;99.90;;;;;;4988752;28;20064;-71
2023/02/15 00:33:47;;;;;;;24.75;11.05;;;3.40;99.90;;;;;;4988740;28;20054;-72
2023/02/15 00:36:13;;;;;;;25.90;11.40;;;3.40;99.90;;;;;;4988614;28;20085;-72
2023/02/15 00:38:39;;;;;;;27.92;12.70;;;3.40;99.90;;;;;;4971684;28;20043;-71
2023/02/15 00:41:07;;;;;;;28.42;11.75;;;3.40;99.90;;;;;;4970439;28;20038;-71
2023/02/15 00:43:33;;;;;;;30.80;13.10;;;3.30;99.90;;;;;;4971415;28;20101;-71
2023/02/15 00:45:59;;;;;;;26.02;11.20;;;3.40;99.90;;;;;;4985161;28;20072;-71
2023/02/15 00:48:26;;;;;;;29.98;12.80;;;3.30;99.90;;;;;;4991482;28;20057;-71
2023/02/15 00:50:54;;;;;;;28.17;11.60;;;3.30;99.90;;;;;;4996508;28;20030;-71
2023/02/15 00:53:20;;;;;;;28.38;12.18;;;3.30;99.90;;;;;;4995798;28;20030;-71
2023/02/15 00:55:46;;;;;;;30.02;12.70;;;3.30;99.90;;;;;;4990123;28;20080;-72
2023/02/15 00:58:13;;;;;;;29.55;13.00;;;3.30;99.90;;;;;;4988031;28;20050;-72
2023/02/15 01:00:39;;;;;;;28.27;11.80;;;3.30;99.90;;;;;;4971211;28;21125;-71
2023/02/15 01:03:05;;;;;;;30.48;12.50;;;3.40;99.90;;;;;;4987843;28;20550;-72
2023/02/15 01:05:32;;;;;;;31.50;14.00;;;3.30;99.90;;;;;;4988093;28;20126;-71
2023/02/15 01:07:57;;;;;;;25.00;11.52;;;3.30;99.90;;;;;;4988085;28;20514;-71
2023/02/15 01:10:23;;;;;;;32.35;12.70;;;3.30;99.90;;;;;;4987897;28;20053;-71
2023/02/15 01:12:50;;;;;;;25.58;11.52;;;3.30;99.90;;;;;;4987978;28;20038;-72
2023/02/15 01:15:16;;;;;;;25.88;11.18;;;3.30;99.90;;;;;;4987734;28;20113;-70
2023/02/15 01:17:43;;;;;;;25.08;12.32;;;3.30;99.90;;;;;;4988596;28;20505;-69
2023/02/15 01:20:10;;;;;;;27.38;12.48;;;3.20;99.90;;;;;;4972088;28;20033;-69
2023/02/15 01:22:35;;;;;;;30.05;11.07;;;3.20;99.90;;;;;;4972156;28;20527;-70
2023/02/15 01:25:01;;;;;;;26.48;11.52;;;3.20;99.90;;;;;;4990564;28;20026;-71
2023/02/15 01:27:30;;;;;;;30.05;12.90;;;3.20;99.90;;;;;;4990355;28;20439;-70
2023/02/15 01:29:55;;;;;;;27.05;12.63;;;3.20;99.90;;;;;;4970543;28;20042;-70
2023/02/15 01:32:21;;;;;;;31.63;13.15;;;3.30;99.90;;;;;;4994189;28;20034;-71
2023/02/15 01:34:47;;;;;;;28.10;11.38;;;3.40;99.90;;;;;;4987204;28;20668;-70
2023/02/15 01:37:12;;;;;;;32.92;12.75;;;3.40;99.90;;;;;;4997691;28;20049;-70
2023/02/15 01:39:38;;;;;;;32.22;13.40;;;3.40;99.90;;;;;;4973741;28;20030;-70
2023/02/15 01:42:04;;;;;;;34.25;14.77;;;3.40;99.90;;;;;;4969668;28;20057;-70
2023/02/15 01:44:51;;;;;;;35.28;14.48;;;3.50;99.90;;;;;;4987519;28;20057;-70
2023/02/15 01:47:43;;;;;;;33.63;14.25;;;3.60;99.90;;;;;;5011318;28;20046;-70
2023/02/15 01:50:14;;;;;;;29.15;12.88;;;3.60;99.90;;;;;;4992872;28;20061;-70
2023/02/15 01:53:03;;;;;;;27.83;13.15;;;3.60;99.90;;;;;;4987923;28;20038;-70
2023/02/15 01:55:35;;;;;;;30.38;12.55;;;3.60;99.90;;;;;;4989142;28;20041;-70
2023/02/15 01:58:01;;;;;;;30.13;13.38;;;3.60;99.90;;;;;;4987425;28;20054;-70
2023/02/15 02:00:28;;;;;;;30.20;12.77;;;3.60;99.90;;;;;;4987597;28;20030;-70
2023/02/15 02:02:56;;;;;;;28.10;12.43;;;3.60;99.90;;;;;;4987397;28;20027;-72
2023/02/15 02:05:22;;;;;;;27.95;12.55;;;3.50;99.90;;;;;;4984955;28;20038;-70
2023/02/15 02:07:52;;;;;;;27.85;12.18;;;3.60;99.90;;;;;;4969960;28;20035;-69
2023/02/15 02:10:22;;;;;;;33.23;12.53;;;3.60;99.90;;;;;;4995092;28;20041;-70
2023/02/15 02:12:51;;;;;;;22.48;9.73;;;3.60;99.90;;;;;;4989904;28;20101;-71
2023/02/15 02:15:17;;;;;;;28.77;12.88;;;3.60;99.90;;;;;;4986106;28;20046;-71
2023/02/15 02:18:07;;;;;;;31.75;13.50;;;3.60;99.90;;;;;;4990146;28;20117;-70
2023/02/15 02:21:02;;;;;;;27.58;12.18;;;3.50;99.90;;;;;;4989080;28;20038;-70
2023/02/15 02:23:57;;;;;;;28.90;11.88;;;3.50;99.90;;;;;;4983789;28;20038;-70
2023/02/15 02:26:28;;;;;;;29.17;12.30;;;3.50;99.90;;;;;;4989293;28;20108;-70
2023/02/15 02:29:15;;;;;;;31.30;12.75;;;3.40;99.90;;;;;;4974246;28;20038;-70
2023/02/15 02:31:53;;;;;;;31.10;12.20;;;3.40;99.90;;;;;;4983365;28;20030;-69
2023/02/15 02:34:28;;;;;;;36.58;13.90;;;3.40;99.90;;;;;;4991034;28;20041;-70
2023/02/15 02:37:20;;;;;;;32.00;12.45;;;3.50;99.90;;;;;;4987283;28;20463;-70
2023/02/15 02:40:05;;;;;;;32.15;12.82;;;3.50;99.90;;;;;;4990691;28;20042;-71
2023/02/15 02:42:43;;;;;;;31.25;12.73;;;3.50;99.90;;;;;;4988980;28;20037;-70
2023/02/15 02:45:19;;;;;;;33.97;13.98;;;3.50;99.90;;;;;;4983753;28;20031;-70
2023/02/15 02:47:56;;;;;;;28.33;13.40;;;3.50;99.90;;;;;;4982493;28;20081;-70
2023/02/15 02:50:26;;;;;;;33.05;12.85;;;3.50;99.90;;;;;;4986630;28;20037;-70
2023/02/15 02:52:54;;;;;;;26.77;10.85;;;3.50;99.90;;;;;;4987097;28;20549;-71
2023/02/15 02:55:39;;;;;;;33.25;12.80;;;3.50;99.90;;;;;;4985549;28;20108;-70
2023/02/15 02:58:14;;;;;;;34.47;14.13;;;3.50;99.90;;;;;;4975357;28;20034;-70
2023/02/15 03:01:01;;;;;;;32.90;13.38;;;3.50;99.90;;;;;;4987373;28;20057;-70
2023/02/15 03:03:46;;;;;;;34.63;13.15;;;3.50;99.90;;;;;;4994108;28;20168;-70
2023/02/15 03:06:38;;;;;;;36.35;13.75;;;3.50;99.90;;;;;;4989525;28;20825;-71
2023/02/15 03:09:14;;;;;;;30.83;14.35;;;3.50;99.90;;;;;;4974218;28;20042;-68
2023/02/15 03:11:41;;;;;;;29.23;13.00;;;3.50;99.90;;;;;;4974489;28;20042;-71
2023/02/15 03:14:06;;;;;;;34.80;14.93;;;3.50;99.90;;;;;;4988825;28;20096;-69
2023/02/15 03:16:33;;;;;;;32.90;13.43;;;3.50;99.90;;;;;;4993452;28;20034;-70
2023/02/15 03:19:13;;;;;;;31.02;13.15;;;3.50;99.90;;;;;;4990226;28;20585;-72
2023/02/15 03:21:57;;;;;;;30.25;12.70;;;3.50;99.90;;;;;;4988393;28;20065;-71
2023/02/15 03:24:26;;;;;;;35.90;13.15;;;3.50;99.90;;;;;;4973233;28;20499;-70
2023/02/15 03:26:53;;;;;;;34.40;14.15;;;3.50;99.90;;;;;;4994516;28;20058;-70
2023/02/15 03:29:21;;;;;;;32.90;14.32;;;3.50;99.90;;;;;;4990148;28;20034;-70
2023/02/15 03:31:53;;;;;;;36.30;14.30;;;3.50;99.90;;;;;;4991443;28;20034;-70
2023/02/15 03:34:19;;;;;;;33.20;14.32;;;3.50;99.90;;;;;;4991358;28;20398;-70
2023/02/15 03:37:16;;;;;;;33.33;14.43;;;3.50;99.90;;;;;;4995664;28;20049;-70
2023/02/15 03:42:46;;;;;;;31.15;11.85;;;3.40;99.90;;;;;;4988434;28;20506;-70
2023/02/15 03:45:17;;;;;;;29.90;11.85;;;3.30;99.90;;;;;;4989470;28;20043;-70
2023/02/15 03:47:47;;;;;;;29.15;12.27;;;3.30;99.90;;;;;;4992738;28;20034;-70
2023/02/15 03:53:11;;;;;;;31.10;12.98;;;3.20;99.90;;;;;;4987929;28;20480;-69
2023/02/15 03:55:37;;;;;;;27.50;12.65;;;3.20;99.90;;;;;;4975056;28;20031;-70
2023/02/15 04:03:51;;;;;;;29.75;13.23;;;3.10;99.90;;;;;;4987915;28;20037;-69
2023/02/15 04:06:16;;;;;;;31.58;12.38;;;3.10;99.90;;;;;;4994015;28;20446;-70
2023/02/15 04:11:26;;;;;;;32.63;12.95;;;3.10;99.90;;;;;;4991526;28;20092;-70
2023/02/15 04:13:56;;;;;;;31.63;11.70;;;3.30;99.90;;;;;;4990992;28;20198;-69
2023/02/15 04:16:23;;;;;;;34.67;13.20;;;3.30;99.90;;;;;;4988878;28;20034;-68
2023/02/15 04:27:04;;;;;;;33.42;13.95;;;3.40;99.90;;;;;;4994450;28;20045;-69
2023/02/15 04:29:30;;;;;;;37.17;14.95;;;3.40;99.90;;;;;;4969609;28;20528;-72
2023/02/15 04:31:59;;;;;;;33.58;14.25;;;3.40;99.90;;;;;;4988108;28;20026;-69
2023/02/15 04:34:24;;;;;;;37.80;12.70;;;3.40;99.90;;;;;;4988789;28;20045;-70
2023/02/15 04:36:50;;;;;;;30.33;12.73;;;3.40;99.90;;;;;;4988857;28;20482;-70
2023/02/15 04:39:17;;;;;;;32.20;13.32;;;3.40;99.90;;;;;;4988269;28;20038;-69
2023/02/15 04:41:43;;;;;;;40.72;14.75;;;3.40;99.90;;;;;;4988585;28;20038;-70
2023/02/15 04:44:09;;;;;;;27.77;12.85;;;3.30;99.90;;;;;;4987462;28;20081;-69
2023/02/15 04:46:35;;;;;;;32.20;12.82;;;3.30;99.90;;;;;;4989094;28;20084;-69
2023/02/15 04:49:00;;;;;;;33.03;13.45;;;3.30;99.90;;;;;;4988863;28;20037;-70
2023/02/15 04:51:26;;;;;;;30.42;13.48;;;3.30;99.90;;;;;;4992541;28;20049;-70
2023/02/15 04:53:55;;;;;;;36.92;14.02;;;3.30;99.90;;;;;;4987681;28;20022;-70
2023/02/15 04:56:21;;;;;;;34.55;13.63;;;3.30;99.90;;;;;;4986090;28;20082;-70
2023/02/15 04:58:47;;;;;;;35.40;12.80;;;3.20;99.90;;;;;;4988558;28;20534;-72
2023/02/15 05:01:13;;;;;;;29.45;12.68;;;3.20;99.90;;;;;;5003272;28;20038;-69
2023/02/15 05:03:38;;;;;;;34.22;14.82;;;3.20;99.90;;;;;;4970554;28;20414;-69
2023/02/15 05:06:04;;;;;;;33.40;12.52;;;3.20;99.90;;;;;;4988350;28;20117;-70
2023/02/15 05:08:30;;;;;;;30.80;12.32;;;3.20;99.90;;;;;;4991295;28;20042;-69
2023/02/15 05:10:56;;;;;;;32.78;13.43;;;3.10;99.90;;;;;;4987503;28;20889;-70
2023/02/15 05:13:22;;;;;;;31.30;13.07;;;3.10;99.90;;;;;;4972456;28;20132;-70
2023/02/15 05:15:49;;;;;;;33.13;12.43;;;3.10;99.90;;;;;;4993590;28;20120;-70
2023/02/15 05:18:16;;;;;;;36.38;14.57;;;3.10;99.90;;;;;;4991525;28;20041;-70
2023/02/15 05:20:42;;;;;;;38.55;13.75;;;3.10;99.90;;;;;;4987236;28;20663;-70
2023/02/15 05:23:07;;;;;;;31.80;12.85;;;3.10;99.90;;;;;;4969490;28;20045;-70
2023/02/15 05:28:20;;;;;;;33.03;12.40;;;3.10;99.90;;;;;;4988991;28;20089;-69
2023/02/15 05:30:50;;;;;;;28.67;12.27;;;3.00;99.90;;;;;;4994854;28;20034;-69
2023/02/15 05:33:16;;;;;;;28.95;11.80;;;3.00;99.90;;;;;;4991183;28;20034;-70
2023/02/15 05:35:42;;;;;;;30.58;12.25;;;3.10;99.90;;;;;;4988782;28;20104;-69
2023/02/15 05:38:08;;;;;;;36.75;13.88;;;3.00;99.90;;;;;;4989390;28;20038;-70
2023/02/15 05:40:34;;;;;;;30.17;12.18;;;3.10;99.90;;;;;;4973671;28;20482;-69
2023/02/15 05:42:59;;;;;;;34.83;13.65;;;3.00;99.90;;;;;;4990705;28;20406;-71
2023/02/15 05:45:25;;;;;;;30.30;11.85;;;3.00;99.90;;;;;;4986047;28;20085;-71
2023/02/15 05:47:51;;;;;;;33.72;13.82;;;3.00;99.90;;;;;;4986445;28;20045;-70
2023/02/15 05:50:17;;;;;;;32.67;12.25;;;3.00;99.90;;;;;;4994643;28;20030;-69
2023/02/15 05:52:42;;;;;;;33.80;12.88;;;3.00;99.90;;;;;;4968256;28;20117;-69
2023/02/15 05:55:08;;;;;;;28.30;11.88;;;2.90;99.90;;;;;;4986564;28;20067;-72
2023/02/15 05:57:35;;;;;;;35.95;12.55;;;2.90;99.90;;;;;;4990483;28;20041;-72
2023/02/15 06:00:04;;;;;;;35.17;12.88;;;2.90;99.90;;;;;;4986737;28;20511;-70
2023/02/15 06:02:29;;;;;;;35.38;13.40;;;2.90;99.90;;;;;;4986735;28;20042;-71
2023/02/15 06:04:55;;;;;;;38.53;12.30;;;2.90;99.90;;;;;;4981650;28;20049;-69
2023/02/15 06:07:20;;;;;;;31.27;13.40;;;2.80;99.90;;;;;;5007373;28;20038;-70
2023/02/15 06:09:46;;;;;;;31.42;12.23;;;2.80;99.90;;;;;;4971985;28;20041;-70
2023/02/15 06:12:12;;;;;;;33.63;12.05;;;2.80;99.90;;;;;;4986095;28;20360;-70
2023/02/15 06:14:37;;;;;;;32.45;13.40;;;2.80;99.90;;;;;;4993987;28;20116;-70
2023/02/15 06:17:03;;;;;;;32.92;12.85;;;2.80;99.90;;;;;;4994030;28;20049;-72
2023/02/15 06:19:28;;;;;;;29.25;12.30;;;2.80;99.90;;;;;;4990248;28;20910;-70
2023/02/15 06:21:54;;;;;;;28.60;10.63;;;2.80;99.90;;;;;;4986202;28;20034;-70
2023/02/15 06:24:19;;;;;;;33.85;12.45;;;2.80;99.90;;;;;;4972448;28;20030;-70
2023/02/15 06:26:45;;;;;;;31.90;12.07;;;2.80;99.90;;;;;;4987324;28;20030;-71
2023/02/15 06:29:11;;;;;;;30.75;11.30;;;2.70;99.90;;;;;;4973930;28;20022;-71
2023/02/15 06:31:36;;;;;;;31.25;12.93;;;2.70;99.90;;;;;;4995023;28;20145;-70
2023/02/15 06:34:02;;;;;;;43.25;14.65;;;2.80;99.90;;;;;;4992737;28;20077;-70
2023/02/15 06:36:28;;;;;;;35.38;11.88;;;2.70;99.90;;;;;;4982846;28;20030;-70
2023/02/15 06:38:55;;;;;;;28.67;12.77;;;2.70;99.90;;;;;;4992850;28;20121;-72
2023/02/15 06:41:20;;;;;;;32.15;12.10;;;2.70;99.90;;;;;;4989996;28;20121;-70
2023/02/15 06:43:46;;;;;;;26.73;11.63;;;2.70;99.90;;;;;;4998773;28;20054;-71
2023/02/15 06:46:12;;;;;;;30.67;11.27;;;2.70;99.90;;;;;;4989391;28;20542;-71
2023/02/15 06:48:37;;;;;;;44.38;12.45;;;2.80;99.90;;;;;;4982081;28;20037;-71
2023/02/15 06:51:03;;;;;;;27.23;10.77;;;2.70;99.90;;;;;;4989932;28;20050;-69
2023/02/15 06:53:29;;;;;;;30.67;12.30;;;2.80;99.90;;;;;;4992745;28;20034;-71
2023/02/15 06:56:08;;;;;;;30.85;12.43;;;2.80;99.90;;;;;;4986097;28;20057;-69
2023/02/15 06:58:35;;;;;;;29.08;12.38;;;2.70;99.90;;;;;;4991217;28;20387;-69
2023/02/15 07:01:00;;;;;;;32.85;12.93;;;2.80;99.90;;;;;;4990730;28;20033;-69
2023/02/15 07:03:26;;;;;;;28.67;12.60;;;2.70;99.90;;;;;;4990852;28;20038;-69
2023/02/15 07:05:59;;;;;;;32.20;12.07;;;2.70;99.90;;;;;;4993090;28;20391;-70
2023/02/15 07:08:26;;;;;;;33.33;12.90;;;2.70;99.90;;;;;;4990852;28;20104;-70
2023/02/15 07:10:54;;;;;;;27.15;12.77;;;2.70;99.90;;;;;;4990650;28;20495;-70
2023/02/15 07:13:20;;;;;;;36.38;13.02;;;2.60;99.90;;;;;;4990434;28;20038;-69
2023/02/15 07:15:47;;;;;;;30.17;11.73;;;2.70;99.90;;;;;;4973497;28;20053;-70
2023/02/15 07:18:13;;;;;;;30.80;12.02;;;2.60;99.90;;;;;;4991790;28;20057;-69
2023/02/15 07:20:41;;;;;;;32.92;11.65;;;2.60;99.90;;;;;;4991088;28;20030;-70
2023/02/15 07:23:07;;;;;;;29.38;11.90;;;2.70;99.90;;;;;;4988698;28;20471;-70
2023/02/15 07:25:33;;;;;;;26.50;11.15;;;2.70;99.90;;;;;;4997865;28;20129;-69
2023/02/15 07:28:01;;;;;;;28.65;12.30;;;2.60;99.90;;;;;;4988753;28;20137;-69
2023/02/15 07:30:28;;;;;;;30.88;12.38;;;2.70;99.90;;;;;;4987059;28;20030;-73
2023/02/15 07:35:56;;;;;;;34.97;12.60;;;2.80;99.90;;;;;;4987375;28;20045;-70
2023/02/15 07:38:22;;;;;;;29.25;11.82;;;2.80;99.90;;;;;;4967469;28;20045;-70
2023/02/15 07:40:48;;;;;;;36.00;13.98;;;2.80;99.90;;;;;;4970632;28;20042;-69
2023/02/15 07:43:14;;;;;;;26.58;11.88;;;2.80;99.90;;;;;;4988932;28;20052;-70
2023/02/15 07:45:40;;;;;;;32.70;12.43;;;2.90;99.90;;;;;;4988687;28;20089;-70
2023/02/15 07:48:06;;;;;;;31.77;13.30;;;2.90;99.90;;;;;;4973314;28;20042;-70
2023/02/15 07:50:32;;;;;;;29.73;13.18;;;2.90;99.90;;;;;;4987729;28;20044;-70
2023/02/15 07:52:57;;;;;;;32.17;12.50;;;3.00;99.90;;;;;;4988512;28;20042;-69
2023/02/15 07:55:24;;;;;;;28.95;13.98;;;3.10;99.90;;;;;;4972571;28;20178;-70
2023/02/15 07:57:51;;;;;;;30.52;12.27;;;3.10;99.90;;;;;;4987379;28;20414;-70
2023/02/15 08:00:21;;;;;;;31.08;12.52;;;3.10;99.90;;;;;;4987811;28;20037;-74
2023/02/15 08:03:12;;;;;;;32.28;13.60;;;3.20;99.90;;;;;;4988195;28;20067;-71
2023/02/15 08:05:37;;;;;;;30.40;12.75;;;3.20;99.90;;;;;;4985563;28;20031;-71
2023/02/15 08:08:03;;;;;;;32.03;13.23;;;3.30;99.90;;;;;;4970031;28;20042;-71
2023/02/15 08:13:13;;;;;;;26.58;12.02;;;3.40;99.90;;;;;;4988213;28;20112;-70
2023/02/15 08:15:38;;;;;;;28.45;12.60;;;3.40;99.90;;;;;;4987560;28;20782;-70
2023/02/15 08:18:04;;;;;;;31.65;12.95;;;3.60;99.90;;;;;;4970059;28;20100;-70
2023/02/15 08:20:30;;;;;;;30.38;11.70;;;3.70;99.90;;;;;;4988237;28;20478;-70
2023/02/15 08:22:56;;;;;;;32.55;12.05;;;3.80;99.90;;;;;;4987268;28;20042;-70
2023/02/15 08:25:21;;;;;;;31.42;13.00;;;3.90;99.90;;;;;;4985342;28;20117;-71
2023/02/15 08:27:47;;;;;;;31.08;12.18;;;4.00;99.90;;;;;;4989587;28;20047;-70
2023/02/15 08:30:14;;;;;;;32.88;13.02;;;4.10;99.90;;;;;;4986205;28;20033;-70
2023/02/15 08:32:39;;;;;;;35.10;12.93;;;4.20;99.90;;;;;;4987418;28;20402;-72
2023/02/15 08:35:05;;;;;;;35.22;12.27;;;4.20;99.90;;;;;;4968117;28;20058;-71
2023/02/15 08:37:31;;;;;;;32.47;12.75;;;4.30;99.90;;;;;;4989252;28;20047;-71
2023/02/15 08:39:56;;;;;;;28.38;11.73;;;4.40;99.90;;;;;;4989043;28;20038;-70
2023/02/15 08:42:22;;;;;;;35.97;14.35;;;4.50;99.90;;;;;;4985403;28;20093;-70
2023/02/15 08:44:50;;;;;;;33.78;12.13;;;4.60;99.90;;;;;;4986389;28;20042;-70
2023/02/15 08:47:15;;;;;;;30.35;12.98;;;4.60;99.90;;;;;;4989125;28;20084;-70
2023/02/15 08:49:41;;;;;;;32.20;13.05;;;4.70;99.90;;;;;;5005275;28;20479;-71
2023/02/15 08:52:07;;;;;;;28.63;11.60;;;4.70;99.90;;;;;;4983192;28;20351;-74
2023/02/15 08:54:32;;;;;;;26.33;12.80;;;4.80;99.90;;;;;;4990964;28;20034;-70
2023/02/15 08:56:59;;;;;;;24.67;11.55;;;4.90;99.90;;;;;;4985182;28;20556;-71
2023/02/15 08:59:26;;;;;;;34.55;13.35;;;4.90;99.90;;;;;;4968923;28;20076;-73
2023/02/15 09:01:53;;;;;;;32.05;12.45;;;5.00;99.90;;;;;;4964994;28;20027;-71
2023/02/15 09:04:19;;;;;;;30.05;12.15;;;5.00;99.90;;;;;;4986243;28;20034;-70
2023/02/15 09:06:46;;;;;;;34.00;13.18;;;5.10;99.90;;;;;;4967615;28;20038;-70
2023/02/15 09:09:12;;;;;;;26.27;11.60;;;5.10;99.90;;;;;;4986000;28;20030;-72
2023/02/15 09:11:41;;;;;;;30.73;12.18;;;5.20;99.90;;;;;;4987581;28;20042;-71
2023/02/15 09:14:10;;;;;;;27.83;12.02;;;5.30;99.90;;;;;;4985471;28;20074;-70
2023/02/15 09:16:37;;;;;;;32.33;13.07;;;5.30;99.90;;;;;;4985982;28;20394;-70
2023/02/15 09:19:04;;;;;;;28.58;12.80;;;5.40;99.90;;;;;;4970974;28;20462;-71
2023/02/15 09:21:37;;;;;;;30.77;13.65;;;5.50;99.90;;;;;;4985830;28;20046;-70
2023/02/15 09:24:09;;;;;;;29.17;12.52;;;5.50;99.90;;;;;;4969765;28;20093;-71
2023/02/15 09:26:40;;;;;;;34.90;13.15;;;5.60;99.90;;;;;;4988229;28;20491;-71
2023/02/15 09:29:06;;;;;;;36.00;13.23;;;5.70;99.90;;;;;;4987007;28;20050;-71
2023/02/15 09:31:36;;;;;;;25.48;11.75;;;5.70;99.90;;;;;;4989368;28;20029;-70
2023/02/15 09:34:02;;;;;;;32.88;12.25;;;5.70;99.90;;;;;;4985507;28;20048;-70
2023/02/15 09:36:38;;;;;;;33.95;12.65;;;5.80;99.90;;;;;;4985898;28;20034;-70
2023/02/15 09:39:07;;;;;;;34.53;12.82;;;5.90;99.90;;;;;;4987933;28;20164;-70
2023/02/15 09:41:51;;;;;;;26.80;11.95;;;6.00;99.90;;;;;;4988511;28;20501;-70
2023/02/15 09:44:23;;;;;;;27.23;11.85;;;6.10;99.90;;;;;;4984277;28;20092;-70
2023/02/15 09:47:17;;;;;;;34.10;13.45;;;6.20;99.90;;;;;;4982626;28;20042;-71
2023/02/15 09:50:09;;;;;;;28.30;11.65;;;6.30;99.90;;;;;;4985428;28;20042;-71
2023/02/15 09:53:02;;;;;;;29.00;12.10;;;6.50;99.90;;;;;;4986118;28;20089;-71
2023/02/15 09:55:54;;;;;;;33.20;13.45;;;6.50;99.90;;;;;;4985722;28;20072;-70
2023/02/15 09:58:50;;;;;;;31.42;12.32;;;6.60;99.90;;;;;;4987058;28;20042;-72
2023/02/15 10:01:34;;;;;;;32.70;13.00;;;6.80;99.90;;;;;;4983128;28;20499;-71
2023/02/15 10:04:26;;;;;;;30.13;12.52;;;6.90;99.90;;;;;;4985196;28;20121;-70
2023/02/15 10:07:20;;;;;;;28.83;12.63;;;7.00;99.90;;;;;;4986464;28;20463;-70
2023/02/15 10:09:51;;;;;;;28.40;12.05;;;7.20;99.90;;;;;;4971503;28;20027;-70
2023/02/15 10:12:41;;;;;;;29.30;11.90;;;7.20;99.90;;;;;;4974049;28;20042;-72
2023/02/15 10:15:19;;;;;;;30.20;12.15;;;7.30;99.90;;;;;;4994843;28;20431;-71
2023/02/15 10:18:11;;;;;;;26.73;11.55;;;7.40;99.90;;;;;;4970379;28;20182;-72
2023/02/15 10:20:45;;;;;;;32.85;13.23;;;7.40;99.90;;;;;;4989251;28;20110;-71
2023/02/15 10:23:38;;;;;;;29.95;11.68;;;7.50;99.90;;;;;;4969696;28;20052;-71
2023/02/15 10:26:13;;;;;;;29.75;12.30;;;7.50;99.90;;;;;;4986786;28;20038;-70
2023/02/15 10:28:53;;;;;;;32.00;12.85;;;7.60;99.90;;;;;;4982823;28;20034;-70
2023/02/15 10:31:50;;;;;;;29.08;12.68;;;7.70;99.90;;;;;;4982999;28;20033;-71
2023/02/15 10:34:38;;;;;;;25.60;11.23;;;7.80;99.90;;;;;;4968056;28;20045;-71
2023/02/15 10:37:24;;;;;;;24.38;11.85;;;7.90;99.90;;;;;;4969769;28;20443;-71
2023/02/15 10:40:06;;;;;;;33.70;12.30;;;7.90;99.90;;;;;;4955199;28;20030;-70
2023/02/15 10:43:08;;;;;;;26.23;11.82;;;8.00;99.90;;;;;;4965210;28;20491;-71
2023/02/15 10:45:49;;;;;;;28.10;11.60;;;8.10;99.90;;;;;;4971101;28;20027;-73
2023/02/15 10:48:52;;;;;;;32.15;12.82;;;8.20;99.90;;;;;;4998996;28;20384;-71
2023/02/15 10:51:48;;;;;;;28.15;12.00;;;8.20;99.90;;;;;;4964002;28;20368;-70
2023/02/15 10:54:30;;;;;;;31.20;13.07;;;8.20;99.90;;;;;;4966206;28;20122;-70
2023/02/15 10:56:59;;;;;;;30.92;13.23;;;8.20;99.90;;;;;;4965887;28;20031;-70
2023/02/15 11:00:09;;;;;;;36.72;14.68;;;8.30;99.90;;;;;;4967533;28;20077;-71
2023/02/15 11:03:04;;;;;;;33.90;12.77;;;8.30;99.90;;;;;;4966121;28;21530;-71
2023/02/15 11:05:35;;;;;;;32.13;13.05;;;8.30;99.90;;;;;;4965269;28;20052;-70
2023/02/15 11:08:05;;;;;;;29.52;12.93;;;8.40;99.90;;;;;;4968583;28;20034;-71
2023/02/15 11:10:52;;;;;;;38.17;13.25;;;8.50;99.90;;;;;;4965760;28;20086;-71
2023/02/15 11:13:20;;;;;;;25.15;12.68;;;8.50;99.90;;;;;;4968923;28;20082;-70
2023/02/15 11:16:01;;;;;;;25.80;12.50;;;8.60;99.90;;;;;;4967778;28;20448;-71
2023/02/15 11:18:41;;;;;;;36.85;13.00;;;8.60;99.90;;;;;;4966391;28;20035;-70
2023/02/15 11:21:13;;;;;;;28.75;13.38;;;8.70;99.90;;;;;;4965741;28;20038;-72
2023/02/15 11:23:44;;;;;;;35.65;14.30;;;8.80;99.90;;;;;;4965943;28;20031;-71
2023/02/15 11:26:36;;;;;;;25.55;12.15;;;8.90;99.90;;;;;;4968720;28;20042;-72
2023/02/15 11:29:20;;;;;;;34.05;12.75;;;9.00;99.90;;;;;;4960048;28;20097;-71
2023/02/15 11:31:50;;;;;;;33.35;12.70;;;9.10;99.90;;;;;;4969643;28;20046;-72
2023/02/15 11:34:26;;;;;;;27.53;12.83;;;9.20;99.90;;;;;;5001912;28;20565;-70
2023/02/15 11:36:55;;;;;;;33.17;14.05;;;9.30;99.90;;;;;;4987450;28;20285;-71
2023/02/15 11:39:21;;;;;;;34.25;14.00;;;9.40;99.90;;;;;;4988757;28;20089;-70
2023/02/15 11:41:53;;;;;;;37.72;13.88;;;9.40;99.90;;;;;;4971393;28;20561;-71
2023/02/15 11:44:26;;;;;;;34.45;13.15;;;9.50;99.90;;;;;;4988388;28;20064;-71
2023/02/15 11:46:51;;;;;;;33.28;13.65;;;9.60;99.90;;;;;;4988627;28;20038;-70
2023/02/15 11:49:33;;;;;;;32.03;13.45;;;9.60;99.90;;;;;;4972436;28;20046;-72
2023/02/15 11:52:01;;;;;;;34.25;14.32;;;9.70;99.90;;;;;;4985135;28;20027;-71
2023/02/15 11:54:32;;;;;;;29.92;13.15;;;9.80;99.90;;;;;;4969595;28;20042;-70
2023/02/15 11:57:03;;;;;;;32.17;12.98;;;9.80;99.90;;;;;;4971540;28;20030;-71
2023/02/15 11:59:34;;;;;;;31.17;13.32;;;9.80;99.90;;;;;;4987954;28;20038;-72
2023/02/15 12:02:00;;;;;;;30.73;13.35;;;9.90;99.90;;;;;;4986011;28;20083;-70
2023/02/15 12:04:32;;;;;;;31.55;13.60;;;10.00;99.90;;;;;;4988760;28;20125;-70
2023/02/15 12:07:11;;;;;;;30.92;13.52;;;10.00;99.90;;;;;;4992284;28;20033;-70
2023/02/15 12:09:51;;;;;;;34.97;13.40;;;10.00;99.90;;;;;;4985997;28;20049;-70
2023/02/15 12:12:23;;;;;;;30.20;13.27;;;10.10;99.90;;;;;;4987077;28;20041;-70
2023/02/15 12:14:54;;;;;;;32.03;14.40;;;10.20;99.90;;;;;;4990213;28;20046;-70
2023/02/15 12:17:28;;;;;;;34.97;13.73;;;10.20;99.90;;;;;;4986359;28;20057;-72
2023/02/15 12:20:01;;;;;;;33.85;14.43;;;10.30;99.90;;;;;;4988784;28;20515;-70
2023/02/15 12:22:32;;;;;;;31.08;13.85;;;10.30;99.90;;;;;;4969935;28;20081;-71
2023/02/15 12:25:04;;;;;;;32.20;14.57;;;10.50;99.90;;;;;;4985958;28;20042;-70
2023/02/15 12:27:32;;;;;;;34.88;14.75;;;10.50;99.90;;;;;;4986852;28;20042;-70
2023/02/15 12:30:20;;;;;;;33.50;14.63;;;10.50;99.90;;;;;;4987512;28;20046;-72
2023/02/15 12:33:07;;;;;;;34.75;13.57;;;10.60;99.90;;;;;;4975738;28;20511;-71
2023/02/15 12:35:35;;;;;;;31.85;13.60;;;10.70;99.90;;;;;;4968581;28;20518;-71
2023/02/15 12:38:09;;;;;;;33.13;14.02;;;10.80;99.90;;;;;;4975352;28;20050;-70
2023/02/15 12:40:35;;;;;;;29.42;14.00;;;10.80;99.90;;;;;;4991288;28;20042;-70
2023/02/15 12:43:08;;;;;;;33.67;13.85;;;10.80;99.90;;;;;;4989580;28;20479;-71
2023/02/15 12:45:36;;;;;;;35.83;14.65;;;10.80;99.90;;;;;;4973437;28;20034;-72
2023/02/15 12:48:07;;;;;;;31.63;14.15;;;10.80;99.90;;;;;;4991383;28;20037;-70
2023/02/15 12:50:33;;;;;;;36.20;13.18;;;10.80;99.90;;;;;;4988627;28;20045;-73
2023/02/15 12:53:13;;;;;;;34.60;14.13;;;10.80;99.90;;;;;;4990562;28;20038;-70
2023/02/15 12:55:51;;;;;;;31.00;12.63;;;10.80;99.90;;;;;;4991268;28;20046;-70
2023/02/15 12:58:20;;;;;;;30.27;12.45;;;10.80;99.90;;;;;;4986962;28;20049;-71
2023/02/15 13:00:46;;;;;;;36.20;14.07;;;10.70;99.90;;;;;;4997235;28;20076;-71
2023/02/15 13:03:23;;;;;;;34.60;14.00;;;10.70;99.90;;;;;;4986243;28;20367;-70
2023/02/15 13:05:54;;;;;;;30.48;13.80;;;10.60;99.90;;;;;;4990477;28;20034;-70
2023/02/15 13:08:30;;;;;;;32.65;12.65;;;10.50;99.90;;;;;;4986004;28;20042;-72
2023/02/15 13:11:11;;;;;;;28.55;13.02;;;10.50;99.90;;;;;;4978183;28;20489;-71
2023/02/15 13:13:55;;;;;;;33.03;13.25;;;10.60;99.90;;;;;;4988901;28;20035;-72
2023/02/15 13:16:37;;;;;;;31.38;13.77;;;10.60;99.90;;;;;;4984363;28;20042;-71
2023/02/15 13:19:19;;;;;;;39.00;15.70;;;10.80;99.90;;;;;;5011432;28;20065;-72
2023/02/15 13:21:48;;;;;;;29.92;13.10;;;10.80;99.90;;;;;;4955786;28;20038;-70
2023/02/15 13:24:24;;;;;;;37.42;14.82;;;10.90;99.90;;;;;;4973274;28;20395;-70
2023/02/15 13:26:50;;;;;;;33.00;14.00;;;11.00;99.90;;;;;;4969433;28;20031;-73
2023/02/15 13:29:37;;;;;;;31.00;12.88;;;11.10;99.90;;;;;;4968723;28;20034;-72
2023/02/15 13:32:25;;;;;;;32.85;12.85;;;11.10;99.90;;;;;;4967808;28;20462;-71